createdAt,value
2022-11-09T00:01:12.441Z,11.76
2022-11-09T00:03:39.015Z,11.72
2022-11-09T00:06:05.591Z,11.73
2022-11-09T00:08:33.034Z,11.75
2022-11-09T00:11:17.819Z,11.63
2022-11-09T00:13:47.885Z,11.65
2022-11-09T00:16:22.519Z,11.67
2022-11-09T00:18:51.926Z,11.64
2022-11-09T00:21:24.116Z,11.68
2022-11-09T00:23:54.393Z,11.75
2022-11-09T00:26:22.141Z,11.66
2022-11-09T00:28:49.896Z,11.71
2022-11-09T00:31:21.786Z,11.72
2022-11-09T00:33:52.918Z,11.81
2022-11-09T00:36:20.985Z,11.68
2022-11-09T00:38:53.919Z,11.58
2022-11-09T00:41:21.748Z,11.62
2022-11-09T00:43:51.877Z,11.60
2022-11-09T00:46:22.077Z,11.57
2022-11-09T00:48:49.016Z,11.61
2022-11-09T00:51:16.604Z,11.68
2022-11-09T00:53:43.630Z,11.80
2022-11-09T00:56:12.647Z,11.91
2022-11-09T00:58:40.956Z,11.85
2022-11-09T01:01:13.969Z,11.88
2022-11-09T01:03:41.044Z,11.92
2022-11-09T01:06:11.983Z,11.99
2022-11-09T01:08:38.605Z,11.90
2022-11-09T01:11:07.860Z,11.84
2022-11-09T01:13:35.632Z,11.95
2022-11-09T01:16:08.967Z,11.96
2022-11-09T01:18:36.223Z,12.07
2022-11-09T01:21:05.635Z,12.13
2022-11-09T01:23:33.747Z,12.14
2022-11-09T01:26:05.705Z,12.20
2022-11-09T01:28:34.101Z,12.14
2022-11-09T01:31:04.053Z,12.05
2022-11-09T01:33:33.593Z,12.11
2022-11-09T01:36:08.741Z,12.32
2022-11-09T01:38:37.841Z,12.33
2022-11-09T01:41:11.522Z,12.35
2022-11-09T01:43:43.357Z,12.38
2022-11-09T01:46:33.398Z,12.38
2022-11-09T01:49:05.331Z,12.43
2022-11-09T01:51:33.901Z,12.38
2022-11-09T01:54:25.459Z,12.45
2022-11-09T01:56:58.398Z,12.54
2022-11-09T01:59:33.608Z,12.49
2022-11-09T02:02:01.175Z,12.39
2022-11-09T02:04:33.856Z,12.43
2022-11-09T02:07:00.932Z,12.45
2022-11-09T02:10:09.318Z,12.39
2022-11-09T02:12:36.226Z,12.38
2022-11-09T02:15:06.996Z,12.37
2022-11-09T02:17:34.877Z,12.30
2022-11-09T02:20:03.817Z,12.26
2022-11-09T02:22:30.492Z,12.32
2022-11-09T02:25:01.203Z,12.44
2022-11-09T02:27:31.653Z,12.43
2022-11-09T02:30:00.208Z,12.57
2022-11-09T02:32:29.602Z,12.40
2022-11-09T02:34:56.746Z,12.41
2022-11-09T02:37:50.312Z,12.48
2022-11-09T02:40:28.072Z,12.40
2022-11-09T02:42:55.336Z,12.37
2022-11-09T02:45:27.791Z,12.45
2022-11-09T02:47:54.525Z,12.56
2022-11-09T02:50:21.251Z,12.60
2022-11-09T02:52:47.865Z,12.85
2022-11-09T02:55:16.639Z,12.82
2022-11-09T02:57:48.602Z,12.57
2022-11-09T03:00:15.453Z,12.51
2022-11-09T03:02:45.046Z,12.71
2022-11-09T03:05:11.711Z,12.58
2022-11-09T03:07:40.735Z,12.66
2022-11-09T03:10:09.922Z,12.65
2022-11-09T03:12:36.626Z,12.51
2022-11-09T03:15:07.411Z,12.61
2022-11-09T03:17:35.159Z,12.65
2022-11-09T03:20:04.318Z,12.55
2022-11-09T03:22:32.523Z,12.60
2022-11-09T03:24:59.154Z,12.51
2022-11-09T03:27:25.877Z,12.51
2022-11-09T03:29:52.488Z,12.61
2022-11-09T03:32:22.628Z,12.49
2022-11-09T03:34:51.850Z,12.44
2022-11-09T03:37:18.645Z,12.44
2022-11-09T03:39:45.483Z,12.44
2022-11-09T03:42:12.014Z,12.59
2022-11-09T03:44:38.613Z,12.67
2022-11-09T03:47:05.239Z,12.58
2022-11-09T03:49:34.452Z,12.55
2022-11-09T03:52:03.447Z,12.49
2022-11-09T03:54:30.047Z,12.44
2022-11-09T03:56:56.638Z,12.48
2022-11-09T03:59:23.269Z,12.37
2022-11-09T04:01:55.132Z,12.36
2022-11-09T04:04:23.956Z,12.28
2022-11-09T04:06:50.522Z,12.37
2022-11-09T04:09:20.189Z,12.43
2022-11-09T04:11:47.078Z,12.43
2022-11-09T04:14:16.318Z,12.44
2022-11-09T04:16:42.910Z,12.48
2022-11-09T04:19:09.552Z,12.61
2022-11-09T04:21:36.221Z,12.55
2022-11-09T04:24:03.643Z,12.54
2022-11-09T04:26:30.195Z,12.54
2022-11-09T04:29:01.086Z,12.49
2022-11-09T04:31:30.659Z,12.51
2022-11-09T04:33:59.275Z,12.76
2022-11-09T04:36:25.894Z,12.65
2022-11-09T04:38:55.595Z,12.60
2022-11-09T04:41:27.429Z,12.50
2022-11-09T04:43:56.879Z,12.40
2022-11-09T04:46:23.592Z,12.41
2022-11-09T04:48:50.193Z,12.42
2022-11-09T04:51:17.002Z,12.38
2022-11-09T04:53:43.557Z,12.45
2022-11-09T04:56:13.364Z,12.45
2022-11-09T04:58:43.369Z,12.44
2022-11-09T05:01:14.609Z,12.51
2022-11-09T05:03:42.764Z,12.53
2022-11-09T05:06:28.605Z,12.52
2022-11-09T05:08:56.056Z,12.41
2022-11-09T05:11:23.296Z,12.46
2022-11-09T05:13:54.100Z,12.37
2022-11-09T05:16:23.746Z,12.38
2022-11-09T05:18:50.951Z,12.27
2022-11-09T05:21:27.598Z,12.31
2022-11-09T05:24:00.199Z,12.29
2022-11-09T05:26:37.521Z,12.24
2022-11-09T05:29:07.173Z,12.26
2022-11-09T05:31:35.771Z,12.35
2022-11-09T05:34:03.558Z,12.58
2022-11-09T05:36:33.662Z,12.38
2022-11-09T05:39:00.499Z,12.25
2022-11-09T05:41:32.379Z,12.26
2022-11-09T05:44:02.450Z,12.21
2022-11-09T05:46:33.791Z,12.12
2022-11-09T05:49:00.291Z,12.16
2022-11-09T05:51:26.913Z,12.09
2022-11-09T05:53:53.427Z,12.11
2022-11-09T05:56:19.962Z,12.07
2022-11-09T05:58:46.782Z,12.04
2022-11-09T06:01:18.073Z,12.00
2022-11-09T06:03:45.094Z,12.00
2022-11-09T06:06:13.923Z,11.92
2022-11-09T06:08:40.933Z,12.06
2022-11-09T06:11:24.046Z,11.97
2022-11-09T06:13:57.183Z,11.94
2022-11-09T06:16:23.778Z,11.98
2022-11-09T06:18:50.647Z,12.04
2022-11-09T06:21:33.600Z,12.10
2022-11-09T06:27:41.067Z,12.30
2022-11-09T06:30:10.712Z,12.10
2022-11-09T06:32:39.219Z,12.51
2022-11-09T06:35:08.740Z,12.21
2022-11-09T06:37:41.341Z,13.00
2022-11-09T06:40:08.811Z,12.56
2022-11-09T06:42:35.553Z,12.75
2022-11-09T06:45:08.428Z,12.72
2022-11-09T06:47:46.988Z,12.43
2022-11-09T06:50:22.051Z,12.42
2022-11-09T06:52:48.602Z,12.36
2022-11-09T06:55:15.218Z,12.40
2022-11-09T06:57:43.341Z,12.47
2022-11-09T07:00:12.069Z,12.55
2022-11-09T07:02:38.622Z,12.50
2022-11-09T07:05:05.579Z,12.52
2022-11-09T07:07:32.320Z,12.62
2022-11-09T07:10:05.425Z,12.64
2022-11-09T07:12:33.310Z,12.78
2022-11-09T07:14:59.847Z,13.21
2022-11-09T07:17:26.702Z,13.21
2022-11-09T07:19:55.601Z,13.66
2022-11-09T07:22:22.176Z,13.87
2022-11-09T07:24:48.741Z,13.74
2022-11-09T07:27:15.349Z,13.52
2022-11-09T07:29:41.915Z,13.31
2022-11-09T07:32:08.636Z,13.21
2022-11-09T07:34:35.270Z,13.14
2022-11-09T07:37:01.836Z,13.51
2022-11-09T07:39:31.835Z,13.96
2022-11-09T07:42:08.475Z,13.96
2022-11-09T07:44:46.122Z,13.93
2022-11-09T07:47:18.044Z,14.36
2022-11-09T07:49:46.389Z,14.95
2022-11-09T07:52:19.547Z,14.75
2022-11-09T07:54:51.817Z,14.63
2022-11-09T07:57:18.986Z,14.77
2022-11-09T07:59:45.479Z,14.57
2022-11-09T08:02:12.823Z,14.27
2022-11-09T08:04:43.073Z,14.23
2022-11-09T08:07:14.199Z,14.39
2022-11-09T08:09:42.916Z,14.89
2022-11-09T08:12:09.574Z,14.36
2022-11-09T08:14:38.012Z,14.21
2022-11-09T08:17:06.659Z,13.72
2022-11-09T08:19:34.393Z,13.60
2022-11-09T08:22:00.983Z,13.70
2022-11-09T08:24:30.293Z,13.48
2022-11-09T08:26:56.824Z,13.49
2022-11-09T08:29:23.623Z,13.60
2022-11-09T08:31:51.449Z,13.81
2022-11-09T08:34:18.124Z,13.73
2022-11-09T08:36:47.795Z,13.84
2022-11-09T08:39:16.264Z,13.92
2022-11-09T08:41:48.981Z,14.36
2022-11-09T08:44:15.569Z,15.01
2022-11-09T08:46:42.134Z,14.70
2022-11-09T08:49:08.701Z,14.98
2022-11-09T08:51:38.433Z,14.78
2022-11-09T08:54:07.430Z,15.13
2022-11-09T08:56:33.865Z,15.30
2022-11-09T08:59:00.325Z,15.68
2022-11-09T09:01:26.863Z,15.07
2022-11-09T09:03:53.419Z,14.89
2022-11-09T09:06:21.697Z,14.71
2022-11-09T09:08:48.261Z,14.77
2022-11-09T09:11:16.555Z,14.51
2022-11-09T09:13:43.818Z,14.52
2022-11-09T09:16:15.472Z,14.92
2022-11-09T09:18:48.086Z,15.27
2022-11-09T09:21:14.739Z,14.94
2022-11-09T09:23:41.259Z,14.48
2022-11-09T09:26:07.868Z,14.40
2022-11-09T09:28:34.883Z,14.37
2022-11-09T09:31:02.174Z,14.35
2022-11-09T09:33:29.345Z,14.45
2022-11-09T09:35:59.391Z,15.01
2022-11-09T09:38:27.284Z,14.95
2022-11-09T09:41:20.296Z,14.87
2022-11-09T09:43:49.746Z,14.92
2022-11-09T09:46:29.804Z,14.84
2022-11-09T09:49:10.303Z,14.78
2022-11-09T09:51:51.045Z,14.79
2022-11-09T09:54:23.352Z,14.78
2022-11-09T09:56:51.435Z,14.93
2022-11-09T09:59:33.214Z,15.09
2022-11-09T10:01:59.778Z,15.19
2022-11-09T10:04:36.175Z,15.16
2022-11-09T10:07:21.556Z,15.04
2022-11-09T10:10:10.075Z,15.20
2022-11-09T10:13:15.455Z,15.15
2022-11-09T10:15:55.395Z,15.21
2022-11-09T10:19:04.706Z,15.19
2022-11-09T10:21:52.922Z,15.24
2022-11-09T10:24:34.372Z,15.29
2022-11-09T10:27:13.723Z,15.53
2022-11-09T10:29:46.301Z,15.55
2022-11-09T10:32:19.960Z,15.62
2022-11-09T10:35:17.227Z,15.70
2022-11-09T10:37:46.711Z,15.71
2022-11-09T10:40:21.359Z,15.57
2022-11-09T10:43:00.705Z,15.63
2022-11-09T10:45:37.599Z,15.59
2022-11-09T10:48:06.049Z,15.59
2022-11-09T10:50:37.471Z,15.60
2022-11-09T10:53:24.908Z,15.67
2022-11-09T10:56:19.956Z,15.58
2022-11-09T10:58:54.674Z,15.41
2022-11-09T11:01:26.692Z,15.40
2022-11-09T11:03:56.070Z,15.47
2022-11-09T11:06:24.772Z,15.68
2022-11-09T11:09:07.564Z,15.59
2022-11-09T11:11:46.451Z,15.51
2022-11-09T11:14:34.018Z,15.49
2022-11-09T11:17:01.308Z,15.45
2022-11-09T11:19:41.439Z,15.47
2022-11-09T11:22:17.374Z,15.63
2022-11-09T11:25:01.966Z,15.57
2022-11-09T11:27:48.726Z,15.54
2022-11-09T11:30:51.362Z,15.53
2022-11-09T11:33:22.715Z,15.60
2022-11-09T11:36:23.327Z,15.61
2022-11-09T11:38:57.751Z,15.58
2022-11-09T11:41:51.138Z,15.80
2022-11-09T11:44:36.173Z,16.09
2022-11-09T11:47:02.813Z,16.25
2022-11-09T11:49:56.720Z,16.44
2022-11-09T11:52:52.892Z,16.37
2022-11-09T11:55:30.310Z,16.65
2022-11-09T11:58:30.936Z,16.49
2022-11-09T12:01:31.515Z,16.47
2022-11-09T12:04:15.813Z,16.71
2022-11-09T12:07:01.854Z,16.82
2022-11-09T12:10:02.197Z,16.58
2022-11-09T12:12:56.208Z,16.59
2022-11-09T12:15:59.206Z,16.60
2022-11-09T12:18:49.121Z,16.63
2022-11-09T12:21:31.960Z,16.62
2022-11-09T12:24:06.318Z,16.64
2022-11-09T12:27:10.904Z,16.56
2022-11-09T12:29:59.368Z,16.42
2022-11-09T12:32:48.469Z,16.49
2022-11-09T12:35:30.641Z,16.57
2022-11-09T12:38:24.357Z,16.60
2022-11-09T12:41:04.719Z,16.52
2022-11-09T12:43:52.506Z,16.75
2022-11-09T12:46:22.737Z,16.56
2022-11-09T12:48:50.243Z,16.45
2022-11-09T12:51:22.931Z,16.52
2022-11-09T12:53:49.518Z,16.54
2022-11-09T12:56:22.092Z,16.63
2022-11-09T12:58:51.369Z,16.71
2022-11-09T13:01:27.136Z,16.80
2022-11-09T13:04:01.969Z,16.83
2022-11-09T13:06:32.027Z,16.72
2022-11-09T13:09:25.563Z,16.74
2022-11-09T13:11:54.410Z,16.61
2022-11-09T13:14:31.346Z,16.58
2022-11-09T13:17:00.862Z,16.70
2022-11-09T13:19:39.285Z,16.73
2022-11-09T13:22:23.286Z,16.86
2022-11-09T13:25:02.073Z,16.90
2022-11-09T13:27:45.367Z,16.80
2022-11-09T13:30:28.463Z,16.80
2022-11-09T13:33:07.056Z,16.77
2022-11-09T13:35:39.861Z,16.66
2022-11-09T13:38:33.676Z,16.65
2022-11-09T13:41:02.135Z,16.65
2022-11-09T13:43:44.022Z,16.75
2022-11-09T13:46:32.210Z,16.73
2022-11-09T13:49:00.641Z,16.59
2022-11-09T13:51:33.393Z,16.67
2022-11-09T13:54:25.415Z,16.65
2022-11-09T13:56:53.387Z,16.80
2022-11-09T13:59:31.774Z,16.82
2022-11-09T14:02:00.591Z,16.73
2022-11-09T14:04:28.714Z,16.60
2022-11-09T14:07:03.951Z,16.45
2022-11-09T14:09:53.551Z,16.69
2022-11-09T14:12:29.909Z,16.69
2022-11-09T14:15:06.570Z,16.90
2022-11-09T14:17:48.727Z,16.75
2022-11-09T14:20:23.716Z,16.70
2022-11-09T14:22:51.781Z,16.65
2022-11-09T14:25:25.939Z,16.54
2022-11-09T14:27:57.920Z,16.51
2022-11-09T14:30:39.220Z,16.48
2022-11-09T14:33:21.440Z,16.44
2022-11-09T14:36:01.695Z,16.45
2022-11-09T14:38:47.508Z,16.56
2022-11-09T14:41:27.738Z,16.50
2022-11-09T14:43:58.469Z,16.47
2022-11-09T14:46:42.630Z,16.46
2022-11-09T14:49:13.620Z,16.58
2022-11-09T14:51:40.787Z,16.61
2022-11-09T14:54:18.629Z,16.53
2022-11-09T14:56:46.290Z,16.47
2022-11-09T14:59:32.171Z,16.30
2022-11-09T15:02:14.868Z,16.16
2022-11-09T15:04:55.523Z,16.12
2022-11-09T15:07:30.571Z,16.25
2022-11-09T15:10:17.775Z,16.18
2022-11-09T15:13:03.824Z,16.09
2022-11-09T15:15:41.591Z,16.12
2022-11-09T15:18:23.715Z,16.22
2022-11-09T15:21:37.511Z,16.05
2022-11-09T15:24:13.189Z,15.92
2022-11-09T15:26:45.741Z,15.79
2022-11-09T15:29:30.643Z,15.67
2022-11-09T15:32:30.419Z,15.68
2022-11-09T15:34:59.706Z,15.60
2022-11-09T15:37:28.608Z,15.42
2022-11-09T15:39:59.115Z,15.32
2022-11-09T15:42:26.840Z,15.27
2022-11-09T15:44:59.499Z,15.19
2022-11-09T15:47:34.828Z,15.16
2022-11-09T15:50:11.906Z,15.10
2022-11-09T15:52:39.671Z,14.98
2022-11-09T15:55:06.458Z,14.87
2022-11-09T15:57:45.393Z,14.86
2022-11-09T16:00:19.262Z,14.93
2022-11-09T16:02:50.436Z,14.81
2022-11-09T16:05:17.885Z,14.79
2022-11-09T16:07:48.930Z,14.72
2022-11-09T16:10:16.470Z,14.66
2022-11-09T16:12:47.415Z,14.57
2022-11-09T16:15:14.339Z,14.90
2022-11-09T16:17:41.115Z,15.24
2022-11-09T16:20:28.050Z,15.21
2022-11-09T16:25:36.048Z,15.10
2022-11-09T16:28:02.677Z,15.08
2022-11-09T16:30:29.338Z,15.11
2022-11-09T16:32:56.009Z,15.03
2022-11-09T16:35:30.239Z,14.98
2022-11-09T16:38:01.772Z,14.97
2022-11-09T16:40:29.193Z,15.01
2022-11-09T16:43:00.477Z,14.95
2022-11-09T16:45:33.441Z,14.91
2022-11-09T16:48:17.767Z,15.01
2022-11-09T16:50:47.623Z,15.05
2022-11-09T16:53:25.533Z,14.95
2022-11-09T16:55:53.588Z,15.20
2022-11-09T16:58:21.940Z,14.87
2022-11-09T17:03:36.982Z,14.28
2022-11-09T17:06:04.025Z,14.25
2022-11-09T17:08:30.723Z,14.22
2022-11-09T17:10:57.305Z,14.27
2022-11-09T17:13:23.903Z,14.27
2022-11-09T17:15:53.379Z,14.21
2022-11-09T17:18:20.248Z,14.11
2022-11-09T17:20:50.009Z,14.02
2022-11-09T17:23:29.065Z,13.99
2022-11-09T17:26:03.763Z,13.96
2022-11-09T17:28:32.520Z,13.89
2022-11-09T17:31:02.643Z,13.87
2022-11-09T17:33:35.852Z,13.80
2022-11-09T17:36:05.148Z,13.85
2022-11-09T17:38:32.519Z,13.86
2022-11-09T17:41:10.262Z,13.75
2022-11-09T17:43:38.453Z,13.71
2022-11-09T17:46:20.466Z,14.03
2022-11-09T17:48:51.054Z,14.25
2022-11-09T17:51:19.682Z,14.30
2022-11-09T17:53:52.289Z,14.31
2022-11-09T17:56:24.002Z,14.28
2022-11-09T17:58:56.352Z,14.40
2022-11-09T18:01:24.921Z,14.52
2022-11-09T18:03:53.761Z,14.52
2022-11-09T18:06:23.150Z,14.64
2022-11-09T18:09:10.727Z,14.59
2022-11-09T18:11:40.842Z,14.49
2022-11-09T18:14:07.698Z,14.23
2022-11-09T18:16:34.299Z,14.31
2022-11-09T18:19:04.273Z,14.31
2022-11-09T18:21:33.724Z,14.34
2022-11-09T18:24:00.809Z,14.18
2022-11-09T18:26:27.482Z,14.30
2022-11-09T18:28:57.032Z,14.46
2022-11-09T18:31:29.045Z,14.65
2022-11-09T18:33:59.634Z,14.46
2022-11-09T18:36:28.027Z,14.25
2022-11-09T18:38:56.647Z,14.15
2022-11-09T18:41:24.648Z,14.17
2022-11-09T18:43:53.978Z,14.26
2022-11-09T18:46:22.727Z,14.18
2022-11-09T18:48:53.595Z,14.26
2022-11-09T18:51:23.283Z,14.27
2022-11-09T18:53:50.070Z,14.15
2022-11-09T18:56:24.150Z,14.12
2022-11-09T18:58:53.143Z,14.05
2022-11-09T19:01:22.001Z,13.99
2022-11-09T19:03:48.969Z,13.93
2022-11-09T19:06:20.412Z,14.12
2022-11-09T19:09:06.952Z,14.12
2022-11-09T19:11:36.643Z,14.56
2022-11-09T19:14:03.416Z,14.52
2022-11-09T19:16:30.595Z,14.27
2022-11-09T19:18:57.231Z,14.37
2022-11-09T19:21:40.278Z,14.19
2022-11-09T19:24:08.903Z,14.28
2022-11-09T19:26:35.860Z,14.24
2022-11-09T19:29:07.339Z,14.10
2022-11-09T19:31:35.454Z,14.21
2022-11-09T19:34:02.712Z,14.06
2022-11-09T19:36:31.424Z,14.10
2022-11-09T19:38:58.345Z,14.01
2022-11-09T19:41:29.402Z,13.88
2022-11-09T19:44:01.465Z,13.89
2022-11-09T19:46:33.309Z,13.87
2022-11-09T19:49:01.974Z,13.96
2022-11-09T19:51:31.860Z,13.97
2022-11-09T19:54:06.105Z,13.97
2022-11-09T19:56:38.626Z,13.96
2022-11-09T19:59:14.659Z,14.27
2022-11-09T20:01:43.897Z,14.19
2022-11-09T20:04:13.622Z,14.14
2022-11-09T20:06:40.703Z,14.25
2022-11-09T20:09:07.400Z,14.17
2022-11-09T20:11:52.605Z,14.03
2022-11-09T20:14:20.626Z,13.91
2022-11-09T20:16:48.542Z,13.85
2022-11-09T20:19:15.547Z,13.89
2022-11-09T20:21:45.743Z,13.84
2022-11-09T20:24:12.682Z,13.81
2022-11-09T20:26:44.124Z,13.80
2022-11-09T20:29:10.973Z,13.75
2022-11-09T20:31:44.787Z,13.81
2022-11-09T20:34:11.788Z,13.78
2022-11-09T20:36:38.594Z,13.76
2022-11-09T20:39:05.428Z,13.74
2022-11-09T20:41:33.990Z,13.82
2022-11-09T20:44:00.944Z,13.92
2022-11-09T20:46:31.320Z,13.87
2022-11-09T20:49:04.019Z,14.06
2022-11-09T20:51:32.661Z,14.63
2022-11-09T20:54:07.585Z,14.86
2022-11-09T20:56:36.211Z,14.62
2022-11-09T20:59:03.055Z,14.37
2022-11-09T21:01:30.396Z,14.32
2022-11-09T21:03:58.424Z,14.45
2022-11-09T21:06:25.119Z,14.25
2022-11-09T21:08:55.937Z,14.03
2022-11-09T21:11:37.178Z,14.16
2022-11-09T21:14:06.853Z,14.12
2022-11-09T21:16:33.473Z,13.88
2022-11-09T21:19:07.756Z,13.84
2022-11-09T21:21:36.730Z,13.80
2022-11-09T21:24:22.890Z,13.67
2022-11-09T21:27:08.288Z,13.75
2022-11-09T21:29:53.321Z,13.96
2022-11-09T21:32:25.255Z,13.80
2022-11-09T21:34:52.043Z,13.67
2022-11-09T21:37:18.786Z,13.69
2022-11-09T21:39:48.237Z,13.69
2022-11-09T21:42:15.193Z,13.57
2022-11-09T21:44:42.158Z,13.60
2022-11-09T21:47:09.271Z,13.55
2022-11-09T21:49:36.038Z,13.45
2022-11-09T21:52:03.575Z,13.44
2022-11-09T21:54:30.673Z,13.39
2022-11-09T21:56:57.840Z,13.37
2022-11-09T21:59:24.696Z,13.37
2022-11-09T22:01:52.275Z,13.25
2022-11-09T22:04:18.981Z,13.26
2022-11-09T22:06:45.740Z,13.09
2022-11-09T22:09:16.280Z,13.09
2022-11-09T22:12:01.615Z,13.15
2022-11-09T22:14:46.700Z,13.57
2022-11-09T22:17:13.673Z,13.36
2022-11-09T22:20:02.531Z,13.41
2022-11-09T22:22:30.691Z,13.31
2022-11-09T22:24:59.058Z,13.36
2022-11-09T22:27:29.475Z,13.28
2022-11-09T22:29:56.151Z,13.38
2022-11-09T22:32:25.952Z,13.32
2022-11-09T22:34:54.371Z,13.35
2022-11-09T22:37:21.421Z,13.36
2022-11-09T22:39:49.737Z,13.39
2022-11-09T22:42:19.083Z,13.71
2022-11-09T22:44:45.787Z,13.52
2022-11-09T22:47:12.367Z,13.39
2022-11-09T22:49:39.036Z,13.35
2022-11-09T22:52:05.672Z,13.31
2022-11-09T22:54:32.341Z,13.41
2022-11-09T22:56:59.191Z,13.67
2022-11-09T22:59:25.917Z,13.59
2022-11-09T23:02:01.015Z,13.65
2022-11-09T23:04:30.731Z,13.79
2022-11-09T23:06:57.607Z,13.73
2022-11-09T23:09:29.234Z,13.73
2022-11-09T23:11:56.550Z,14.00
2022-11-09T23:14:43.700Z,13.64
2022-11-09T23:17:30.280Z,13.60
2022-11-09T23:19:56.985Z,13.92
2022-11-09T23:22:23.695Z,14.12
2022-11-09T23:25:09.117Z,13.94
2022-11-09T23:27:35.688Z,14.11
2022-11-09T23:30:02.275Z,13.98
2022-11-09T23:32:29.098Z,13.67
2022-11-09T23:34:55.808Z,13.99
2022-11-09T23:37:24.536Z,13.91
2022-11-09T23:39:54.616Z,13.71
2022-11-09T23:42:22.996Z,13.40
2022-11-09T23:44:52.579Z,13.60
2022-11-09T23:47:22.171Z,13.61
2022-11-09T23:49:48.755Z,13.44
2022-11-09T23:52:18.349Z,13.34
2022-11-09T23:54:47.891Z,13.55
2022-11-09T23:57:14.654Z,13.47
2022-11-09T23:59:43.330Z,13.32
